Disclaimer

Please do not use the information listed here in-flight or in-navigation, as they are not provided to us by the airports but are provided by volunteers, so they might be outdated.

Search


Regions


Airport information page

Radio informations:
ARCTIC RDO - 126.7 MHz
VDF - 122.2 MHz
ARCTIC RDO - 126.9 MHz
RDO - 122.2 MHz
MONTREAL CNTR - 134.55 MHz
MF - 122.2 MHz

Airport informations:
Latitude: 63° 45' 23.00" N
Longitude: 068° 33' 21.00" W
Elevation: 110 feet - 34 meters
Operating hours: N/A
Operating agency: Civil government, landing fees and diplomatic clearance may be required
Timezone: Second Sunday in March at 0200 to first Sunday in November at 0200 local time (Exception Arizona and that portion of Indiana in the Eastern Time Zone)
Fuel: Jet A1, without icing nhibitor.

100/130 MIL Spec, low lead, aviation gasoline (BLUE)

Runway information:
17/35 - 8600 x 200 feet< - >2621 x 61 meters

Recent METARs:
CYFB 190100Z 02003KT 310V070 15SM -SN VV033 M11/M15 A2983 RMK SN8 SLP106
CYFB 190100Z 02003KT 310V070 15SM -SN VV033 M11/M15 A2983 RMK SN8 SLP106
CYFB 190200Z 07007KT 15SM -SN VV033 M11/M16 A2982 RMK SN8 SLP104

Airport on the map: